| time (UTC) | temp F | wind direction | speed knots | gust knots | rain 1hr in | rain 24hr in | rain mn in | humidity % | barometer mb |
| 20260506203039 | 46 | 0 | 0.0 | 0.0 | 0.00 | 0.53 | 0.46 | 90 | 1011.9 |
| 20260506202038 | 47 | 0 | 0.0 | 0.0 | 0.00 | 0.54 | 0.46 | 89 | 1011.8 |
| 20260506201040 | 47 | 0 | 0.0 | 0.0 | 0.00 | 0.54 | 0.46 | 89 | 1011.8 |
| 20260506200039 | 47 | 0 | 0.0 | 0.0 | 0.00 | 0.56 | 0.46 | 88 | 1011.7 |
| 20260506195037 | 48 | 0 | 0.0 | 0.0 | 0.00 | 0.57 | 0.46 | 87 | 1011.5 |
| 20260506194037 | 48 | 0 | 0.0 | 0.0 | 0.00 | 0.57 | 0.46 | 86 | 1011.5 |
| 20260506193037 | 49 | 0 | 0.0 | 0.0 | 0.00 | 0.58 | 0.46 | 84 | 1011.4 |
| 20260506192036 | 49 | 0 | 0.0 | 0.0 | 0.00 | 0.59 | 0.46 | 84 | 1011.3 |
| 20260506190038 | 50 | 0 | 0.0 | 0.0 | 0.00 | 0.60 | 0.46 | 84 | 1011.0 |
| 20260506185038 | 51 | 0 | 0.0 | 0.0 | 0.00 | 0.61 | 0.46 | 83 | 1010.8 |
| 20260506184036 | 51 | 0 | 0.0 | 0.0 | 0.00 | 0.61 | 0.46 | 82 | 1010.8 |
| 20260506183039 | 51 | 0 | 0.0 | 0.0 | 0.00 | 0.62 | 0.46 | 83 | 1010.7 |
| 20260506182038 | 51 | 0 | 0.0 | 0.0 | 0.00 | 0.63 | 0.46 | 82 | 1010.5 |
| 20260506181041 | 52 | 0 | 0.0 | 0.0 | 0.00 | 0.64 | 0.46 | 81 | 1010.4 |
| 20260506180038 | 52 | 0 | 0.0 | 0.0 | 0.00 | 0.64 | 0.46 | 79 | 1010.3 |
| 20260506175038 | 52 | 0 | 0.0 | 0.0 | 0.00 | 0.65 | 0.46 | 81 | 1010.2 |
| 20260506174039 | 52 | 0 | 0.0 | 0.0 | 0.00 | 0.65 | 0.46 | 80 | 1009.9 |
| 20260506173036 | 53 | 0 | 0.0 | 0.0 | 0.00 | 0.66 | 0.46 | 78 | 1009.8 |
| 20260506172039 | 53 | 0 | 0.0 | 0.0 | 0.00 | 0.67 | 0.46 | 80 | 1009.7 |
| 20260506171040 | 53 | 0 | 0.0 | 0.0 | 0.00 | 0.67 | 0.46 | 81 | 1009.7 |
| 20260506170035 | 53 | 0 | 0.0 | 0.0 | 0.00 | 0.68 | 0.46 | 83 | 1009.6 |
| 20260506165037 | 53 | 0 | 0.0 | 0.0 | 0.00 | 0.68 | 0.46 | 83 | 1009.6 |
| 20260506164034 | 53 | 0 | 0.0 | 0.0 | 0.00 | 0.68 | 0.46 | 82 | 1009.6 |
| 20260506163039 | 53 | 0 | 0.0 | 0.0 | 0.00 | 0.68 | 0.46 | 82 | 1009.5 |
| 20260506162037 | 53 | 0 | 0.0 | 0.0 | 0.00 | 0.68 | 0.46 | 83 | 1009.5 |
| 20260506161039 | 54 | 0 | 0.0 | 0.0 | 0.00 | 0.68 | 0.46 | 79 | 1009.4 |
| 20260506160037 | 54 | 0 | 0.0 | 0.0 | 0.00 | 0.68 | 0.46 | 79 | 1009.4 |
| 20260506155036 | 54 | 0 | 0.0 | 0.0 | 0.00 | 0.68 | 0.46 | 80 | 1009.4 |
| 20260506154041 | 54 | 0 | 0.0 | 0.0 | 0.00 | 0.68 | 0.46 | 83 | 1009.3 |
| 20260506153036 | 53 | 0 | 0.0 | 0.0 | 0.00 | 0.68 | 0.46 | 84 | 1009.3 |
| 20260506151039 | 54 | 0 | 0.0 | 0.0 | 0.00 | 0.68 | 0.46 | 84 | 1009.2 |
| 20260506150037 | 54 | 0 | 0.0 | 0.0 | 0.00 | 0.68 | 0.46 | 84 | 1009.2 |
| 20260506145038 | 53 | 0 | 0.0 | 0.0 | 0.00 | 0.68 | 0.46 | 85 | 1009.2 |
| 20260506143035 | 52 | 0 | 0.0 | 0.0 | 0.00 | 0.68 | 0.46 | 88 | 1009.4 |
| 20260506142037 | 52 | 0 | 0.0 | 0.0 | 0.00 | 0.68 | 0.46 | 90 | 1009.4 |
| 20260506141038 | 52 | 0 | 0.0 | 0.0 | 0.00 | 0.68 | 0.46 | 89 | 1009.4 |
| 20260506140040 | 52 | 0 | 0.0 | 0.0 | 0.00 | 0.68 | 0.46 | 90 | 1009.4 |
| 20260506135039 | 52 | 0 | 0.0 | 0.0 | 0.00 | 0.68 | 0.46 | 93 | 1009.4 |
| 20260506134038 | 51 | 0 | 0.0 | 0.0 | 0.00 | 0.68 | 0.46 | 92 | 1009.5 |
| 20260506132039 | 51 | 0 | 0.0 | 0.0 | 0.00 | 0.68 | 0.46 | 91 | 1009.5 |
| 20260506131036 | 51 | 0 | 0.0 | 0.0 | 0.00 | 0.68 | 0.46 | 89 | 1009.4 |
| 20260506130037 | 51 | 0 | 0.0 | 0.0 | 0.00 | 0.68 | 0.46 | 89 | 1009.3 |
| 20260506124037 | 51 | 0 | 0.0 | 0.0 | 0.00 | 0.68 | 0.46 | 90 | 1009.3 |
| 20260506123037 | 51 | 0 | 0.0 | 0.0 | 0.00 | 0.68 | 0.46 | 88 | 1009.1 |
| 20260506122037 | 52 | 0 | 0.0 | 0.0 | 0.00 | 0.68 | 0.46 | 90 | 1009.1 |
| 20260506121035 | 52 | 0 | 0.0 | 0.0 | 0.00 | 0.68 | 0.46 | 92 | 1009.0 |
| 20260506120036 | 51 | 0 | 0.0 | 0.0 | 0.00 | 0.68 | 0.46 | 94 | 1009.1 |
| 20260506115036 | 50 | 0 | 0.0 | 0.0 | 0.00 | 0.68 | 0.46 | 94 | 1009.1 |
| 20260506114037 | 50 | 0 | 0.0 | 0.0 | 0.00 | 0.68 | 0.46 | 93 | 1009.1 |
| 20260506113038 | 51 | 0 | 0.0 | 0.0 | 0.00 | 0.68 | 0.46 | 94 | 1009.0 |
| 20260506111037 | 50 | 0 | 0.0 | 0.0 | 0.00 | 0.68 | 0.46 | 10 | 1009.2 |
| 20260506105037 | 49 | 0 | 0.0 | 0.0 | 0.00 | 0.68 | 0.46 | 10 | 1009.2 |
| 20260506104025 | 48 | 0 | 0.0 | 0.0 | 0.01 | 0.68 | 0.46 | 10 | 1009.2 |
| 20260506103037 | 48 | 0 | 0.0 | 0.0 | 0.01 | 0.68 | 0.46 | 10 | 1009.2 |
| 20260506102037 | 48 | 0 | 0.0 | 0.0 | 0.01 | 0.68 | 0.46 | 10 | 1009.2 |
| 20260506101036 | 47 | 0 | 0.0 | 0.0 | 0.02 | 0.69 | 0.46 | 10 | 1009.1 |
| 20260506100036 | 47 | 0 | 0.0 | 0.0 | 0.02 | 0.69 | 0.46 | 10 | 1008.9 |
| 20260506094034 | 47 | 0 | 0.0 | 0.0 | 0.04 | 0.69 | 0.46 | 10 | 1008.9 |
| 20260506093038 | 47 | 0 | 0.0 | 0.0 | 0.05 | 0.69 | 0.45 | 10 | 1008.7 |
| 20260506092034 | 47 | 0 | 0.0 | 0.0 | 0.06 | 0.69 | 0.45 | 10 | 1008.6 |
| 20260506090038 | 47 | 0 | 0.0 | 0.0 | 0.06 | 0.68 | 0.44 | 10 | 1008.6 |
| 20260506084036 | 47 | 0 | 0.0 | 0.0 | 0.05 | 0.66 | 0.43 | 10 | 1008.3 |
| 20260506081037 | 46 | 0 | 0.0 | 0.0 | 0.03 | 0.63 | 0.39 | 10 | 1008.2 |
| 20260506073038 | 46 | 0 | 0.0 | 0.0 | 0.03 | 0.61 | 0.38 | 10 | 1007.9 |
| 20260506072035 | 46 | 0 | 0.0 | 0.0 | 0.03 | 0.61 | 0.37 | 10 | 1007.8 |
| 20260506071036 | 46 | 0 | 0.0 | 0.0 | 0.03 | 0.61 | 0.37 | 10 | 1007.8 |
| 20260506062035 | 46 | 0 | 0.0 | 0.0 | 0.03 | 0.58 | 0.35 | 10 | 1007.6 |
| 20260506061036 | 46 | 0 | 0.0 | 0.0 | 0.02 | 0.57 | 0.34 | 10 | 1007.6 |
| 20260506045024 | 46 | 0 | 0.0 | 0.0 | 0.06 | 0.55 | 0.30 | 10 | 1007.6 |
| 20260506043037 | 46 | 0 | 0.0 | 0.0 | 0.06 | 0.54 | 0.28 | 10 | 1007.5 |
| 20260506042022 | 46 | 0 | 0.0 | 0.0 | 0.06 | 0.54 | 0.28 | 10 | 1007.5 |
| 20260506041022 | 46 | 0 | 0.0 | 0.0 | 0.06 | 0.53 | 0.27 | 10 | 1007.4 |
| 20260506040023 | 46 | 0 | 0.0 | 0.0 | 0.05 | 0.52 | 0.26 | 10 | 1007.5 |
| 20260506035024 | 46 | 0 | 0.0 | 0.0 | 0.04 | 0.51 | 0.25 | 10 | 1007.5 |
| 20260506034036 | 46 | 0 | 0.0 | 0.0 | 0.03 | 0.50 | 0.24 | 10 | 1007.5 |
| 20260506033023 | 46 | 0 | 0.0 | 0.0 | 0.02 | 0.49 | 0.23 | 10 | 1007.5 |
| 20260506032022 | 46 | 0 | 0.0 | 0.0 | 0.02 | 0.48 | 0.22 | 10 | 1007.5 |
| 20260506031021 | 46 | 0 | 0.0 | 0.0 | 0.02 | 0.47 | 0.21 | 10 | 1007.5 |
| 20260506030025 | 46 | 0 | 0.0 | 0.0 | 0.02 | 0.47 | 0.21 | 10 | 1007.5 |
| 20260506025022 | 46 | 0 | 0.0 | 0.0 | 0.02 | 0.47 | 0.21 | 10 | 1007.5 |
| 20260506024036 | 47 | 0 | 0.0 | 0.0 | 0.03 | 0.48 | 0.21 | 10 | 1007.6 |
| 20260506023023 | 47 | 0 | 0.0 | 0.0 | 0.03 | 0.47 | 0.20 | 10 | 1007.6 |
| 20260506021023 | 47 | 0 | 0.0 | 0.0 | 0.04 | 0.46 | 0.20 | 10 | 1007.6 |
| 20260506020024 | 47 | 0 | 0.0 | 0.0 | 0.05 | 0.46 | 0.20 | 10 | 1007.7 |
| 20260506015022 | 47 | 0 | 0.0 | 0.0 | 0.05 | 0.46 | 0.19 | 10 | 1007.7 |
| 20260506014023 | 47 | 0 | 0.0 | 0.0 | 0.06 | 0.46 | 0.19 | 10 | 1007.7 |
| 20260506013023 | 47 | 0 | 0.0 | 0.0 | 0.06 | 0.45 | 0.18 | 10 | 1007.8 |
| 20260506012035 | 47 | 0 | 0.0 | 0.0 | 0.06 | 0.44 | 0.17 | 10 | 1007.8 |
| 20260506011024 | 47 | 0 | 0.0 | 0.0 | 0.06 | 0.43 | 0.17 | 10 | 1007.8 |
| 20260506010020 | 48 | 0 | 0.0 | 0.0 | 0.06 | 0.43 | 0.16 | 10 | 1007.9 |
| 20260506005026 | 48 | 0 | 0.0 | 0.0 | 0.06 | 0.42 | 0.15 | 10 | 1007.9 |
| 20260506004023 | 48 | 0 | 0.0 | 0.0 | 0.06 | 0.41 | 0.14 | 10 | 1007.9 |
| 20260506003023 | 48 | 0 | 0.0 | 0.0 | 0.05 | 0.39 | 0.13 | 10 | 1008.0 |
| 20260506001023 | 48 | 0 | 0.0 | 0.0 | 0.06 | 0.39 | 0.12 | 10 | 1008.1 |
| 20260506000045 | 48 | 0 | 0.0 | 0.0 | 0.07 | 0.38 | 0.11 | 10 | 1008.2 |
| 20260505235031 | 48 | 0 | 0.0 | 0.0 | 0.07 | 0.37 | 0.10 | 10 | 1008.3 |
| 20260505234037 | 48 | 0 | 0.0 | 0.0 | 0.07 | 0.36 | 0.09 | 10 | 1008.4 |
| 20260505233036 | 48 | 0 | 0.0 | 0.0 | 0.07 | 0.35 | 0.09 | 10 | 1008.4 |
| 20260505232038 | 48 | 0 | 0.0 | 0.0 | 0.06 | 0.35 | 0.08 | 10 | 1008.4 |
| 20260505231030 | 48 | 0 | 0.0 | 0.0 | 0.06 | 0.33 | 0.06 | 10 | 1008.5 |
| 20260505230038 | 48 | 0 | 0.0 | 0.0 | 0.06 | 0.32 | 0.06 | 10 | 1008.5 |
| 20260505223035 | 48 | 0 | 0.0 | 0.0 | 0.05 | 0.29 | 0.02 | 10 | 1008.6 |
| 20260505222037 | 48 | 0 | 0.0 | 0.0 | 0.05 | 0.28 | 0.02 | 10 | 1008.6 |
| 20260505221038 | 48 | 0 | 0.0 | 0.0 | 0.06 | 0.28 | 0.02 | 10 | 1008.7 |
| 20260505220035 | 48 | 0 | 0.0 | 0.0 | 0.06 | 0.28 | 0.01 | 10 | 1008.7 |
| 20260505213038 | 48 | 0 | 0.0 | 0.0 | 0.06 | 0.26 | 0.26 | 10 | 1008.9 |
| 20260505211038 | 48 | 0 | 0.0 | 0.0 | 0.06 | 0.24 | 0.24 | 10 | 1008.9 |
| 20260505210038 | 49 | 0 | 0.0 | 0.0 | 0.06 | 0.23 | 0.23 | 10 | 1008.9 |
| 20260505205037 | 49 | 0 | 0.0 | 0.0 | 0.06 | 0.22 | 0.22 | 10 | 1008.9 |
| 20260505204036 | 49 | 0 | 0.0 | 0.0 | 0.06 | 0.21 | 0.21 | 10 | 1009.0 |